sensor_id;sensor_type;location;lat;lon;timestamp;pressure;altitude;pressure_sealevel;temperature;humidity
42001;BME280;27689;48.390;10.856;2023-06-26T00:00:50;96162.19;;;17.94;71.65
42001;BME280;27689;48.390;10.856;2023-06-26T00:03:34;96165.56;;;17.88;71.82
42001;BME280;27689;48.390;10.856;2023-06-26T00:06:18;96167.78;;;17.85;71.87
42001;BME280;27689;48.390;10.856;2023-06-26T00:09:02;96172.84;;;17.80;71.88
42001;BME280;27689;48.390;10.856;2023-06-26T00:11:46;96177.34;;;17.79;71.45
42001;BME280;27689;48.390;10.856;2023-06-26T00:14:30;96175.06;;;17.76;72.77
42001;BME280;27689;48.390;10.856;2023-06-26T00:17:14;96174.44;;;17.74;73.25
42001;BME280;27689;48.390;10.856;2023-06-26T00:19:58;96167.84;;;17.70;72.25
42001;BME280;27689;48.390;10.856;2023-06-26T00:22:42;96161.66;;;17.63;73.20
42001;BME280;27689;48.390;10.856;2023-06-26T00:25:26;96168.78;;;17.62;73.41
42001;BME280;27689;48.390;10.856;2023-06-26T00:28:10;96162.94;;;17.52;73.84
42001;BME280;27689;48.390;10.856;2023-06-26T00:30:54;96160.72;;;17.49;74.45
42001;BME280;27689;48.390;10.856;2023-06-26T00:33:37;96166.81;;;17.50;74.64
42001;BME280;27689;48.390;10.856;2023-06-26T00:36:21;96159.81;;;17.42;73.75
42001;BME280;27689;48.390;10.856;2023-06-26T00:39:07;96158.34;;;17.40;73.40
42001;BME280;27689;48.390;10.856;2023-06-26T00:41:51;96158.72;;;17.37;73.11
42001;BME280;27689;48.390;10.856;2023-06-26T00:44:37;96160.94;;;17.33;73.11
42001;BME280;27689;48.390;10.856;2023-06-26T00:47:21;96164.16;;;17.28;73.75
42001;BME280;27689;48.390;10.856;2023-06-26T00:50:06;96163.50;;;17.26;73.54
42001;BME280;27689;48.390;10.856;2023-06-26T00:52:50;96165.69;;;17.23;73.61
42001;BME280;27689;48.390;10.856;2023-06-26T00:55:34;96166.47;;;17.17;72.94
42001;BME280;27689;48.390;10.856;2023-06-26T00:58:18;96163.00;;;17.16;72.82
42001;BME280;27689;48.390;10.856;2023-06-26T01:01:03;96160.25;;;17.10;72.45
42001;BME280;27689;48.390;10.856;2023-06-26T01:03:49;96159.44;;;17.09;72.36
42001;BME280;27689;48.390;10.856;2023-06-26T01:06:37;96159.84;;;17.06;72.62
42001;BME280;27689;48.390;10.856;2023-06-26T01:09:22;96165.13;;;17.06;72.65
42001;BME280;27689;48.390;10.856;2023-06-26T01:12:07;96162.19;;;17.01;72.59
42001;BME280;27689;48.390;10.856;2023-06-26T01:14:51;96160.28;;;16.95;72.40
42001;BME280;27689;48.390;10.856;2023-06-26T01:17:37;96165.75;;;16.93;73.09
42001;BME280;27689;48.390;10.856;2023-06-26T01:20:22;96159.84;;;16.91;72.93
42001;BME280;27689;48.390;10.856;2023-06-26T01:26:21;96151.19;;;16.83;73.20
42001;BME280;27689;48.390;10.856;2023-06-26T01:29:07;96144.59;;;16.79;73.67
42001;BME280;27689;48.390;10.856;2023-06-26T01:31:53;96137.88;;;16.76;73.67
42001;BME280;27689;48.390;10.856;2023-06-26T01:34:37;96137.44;;;16.73;73.27
42001;BME280;27689;48.390;10.856;2023-06-26T01:37:21;96136.78;;;16.71;73.48
42001;BME280;27689;48.390;10.856;2023-06-26T01:40:05;96135.88;;;16.64;74.13
42001;BME280;27689;48.390;10.856;2023-06-26T01:42:50;96133.22;;;16.64;73.99
42001;BME280;27689;48.390;10.856;2023-06-26T01:45:35;96137.69;;;16.63;74.51
42001;BME280;27689;48.390;10.856;2023-06-26T01:48:30;96139.88;;;16.60;74.80
42001;BME280;27689;48.390;10.856;2023-06-26T01:51:17;96133.47;;;16.54;75.58
42001;BME280;27689;48.390;10.856;2023-06-26T01:54:05;96135.66;;;16.50;75.71
42001;BME280;27689;48.390;10.856;2023-06-26T01:56:53;96132.47;;;16.40;76.32
42001;BME280;27689;48.390;10.856;2023-06-26T01:59:40;96132.84;;;16.37;76.41
42001;BME280;27689;48.390;10.856;2023-06-26T02:02:25;96129.56;;;16.35;76.40
42001;BME280;27689;48.390;10.856;2023-06-26T02:05:09;96143.59;;;16.36;76.18
42001;BME280;27689;48.390;10.856;2023-06-26T02:07:53;96143.78;;;16.34;76.40
42001;BME280;27689;48.390;10.856;2023-06-26T02:10:37;96147.63;;;16.32;77.21
42001;BME280;27689;48.390;10.856;2023-06-26T02:13:21;96141.88;;;16.28;76.64
42001;BME280;27689;48.390;10.856;2023-06-26T02:16:05;96137.75;;;16.26;77.39
42001;BME280;27689;48.390;10.856;2023-06-26T02:18:49;96146.59;;;16.18;77.59
42001;BME280;27689;48.390;10.856;2023-06-26T02:21:33;96149.88;;;16.20;77.72
42001;BME280;27689;48.390;10.856;2023-06-26T02:24:19;96141.28;;;16.18;77.70
42001;BME280;27689;48.390;10.856;2023-06-26T02:27:03;96144.97;;;16.17;77.89
42001;BME280;27689;48.390;10.856;2023-06-26T02:29:47;96137.75;;;16.11;77.94
42001;BME280;27689;48.390;10.856;2023-06-26T02:32:31;96138.56;;;16.11;77.86
42001;BME280;27689;48.390;10.856;2023-06-26T02:35:15;96133.81;;;16.07;78.46
42001;BME280;27689;48.390;10.856;2023-06-26T02:37:59;96149.19;;;16.03;78.37
42001;BME280;27689;48.390;10.856;2023-06-26T02:40:43;96145.75;;;16.03;78.48
42001;BME280;27689;48.390;10.856;2023-06-26T02:43:26;96142.47;;;16.01;78.79
42001;BME280;27689;48.390;10.856;2023-06-26T02:46:10;96148.00;;;15.91;79.46
42001;BME280;27689;48.390;10.856;2023-06-26T02:48:54;96143.28;;;15.86;79.24
42001;BME280;27689;48.390;10.856;2023-06-26T02:51:38;96147.19;;;15.91;79.57
42001;BME280;27689;48.390;10.856;2023-06-26T02:54:22;96145.91;;;15.86;79.85
42001;BME280;27689;48.390;10.856;2023-06-26T02:57:06;96144.44;;;15.84;79.69
42001;BME280;27689;48.390;10.856;2023-06-26T02:59:51;96142.69;;;15.76;79.92
42001;BME280;27689;48.390;10.856;2023-06-26T03:02:35;96144.06;;;15.72;80.66
42001;BME280;27689;48.390;10.856;2023-06-26T03:05:19;96140.59;;;15.72;80.57
42001;BME280;27689;48.390;10.856;2023-06-26T03:08:03;96150.03;;;15.66;80.97
42001;BME280;27689;48.390;10.856;2023-06-26T03:10:47;96152.84;;;15.65;81.39
42001;BME280;27689;48.390;10.856;2023-06-26T03:13:32;96150.72;;;15.60;81.70
42001;BME280;27689;48.390;10.856;2023-06-26T03:16:16;96138.41;;;15.52;82.70
42001;BME280;27689;48.390;10.856;2023-06-26T03:19:00;96145.50;;;15.52;82.61
42001;BME280;27689;48.390;10.856;2023-06-26T03:21:44;96147.19;;;15.45;83.55
42001;BME280;27689;48.390;10.856;2023-06-26T03:24:28;96139.00;;;15.40;83.63
42001;BME280;27689;48.390;10.856;2023-06-26T03:27:12;96134.88;;;15.37;84.12
42001;BME280;27689;48.390;10.856;2023-06-26T03:29:56;96135.94;;;15.28;84.68
42001;BME280;27689;48.390;10.856;2023-06-26T03:32:40;96140.56;;;15.26;84.47
42001;BME280;27689;48.390;10.856;2023-06-26T03:35:24;96135.47;;;15.25;84.97
42001;BME280;27689;48.390;10.856;2023-06-26T03:38:08;96139.91;;;15.24;84.84
42001;BME280;27689;48.390;10.856;2023-06-26T03:40:52;96134.63;;;15.24;84.32
42001;BME280;27689;48.390;10.856;2023-06-26T03:43:36;96132.16;;;15.23;84.43
42001;BME280;27689;48.390;10.856;2023-06-26T03:46:20;96135.94;;;15.28;83.48
42001;BME280;27689;48.390;10.856;2023-06-26T03:49:04;96141.03;;;15.30;83.74
42001;BME280;27689;48.390;10.856;2023-06-26T03:51:48;96144.84;;;15.27;84.22
42001;BME280;27689;48.390;10.856;2023-06-26T03:54:32;96136.13;;;15.27;83.70
42001;BME280;27689;48.390;10.856;2023-06-26T03:57:18;96142.22;;;15.27;83.88
42001;BME280;27689;48.390;10.856;2023-06-26T04:00:02;96140.41;;;15.28;83.99
42001;BME280;27689;48.390;10.856;2023-06-26T04:02:52;96141.22;;;15.28;84.31
42001;BME280;27689;48.390;10.856;2023-06-26T04:05:36;96144.19;;;15.25;84.44
42001;BME280;27689;48.390;10.856;2023-06-26T04:08:20;96141.41;;;15.27;83.96
42001;BME280;27689;48.390;10.856;2023-06-26T04:11:04;96136.47;;;15.24;84.25
42001;BME280;27689;48.390;10.856;2023-06-26T04:13:48;96140.03;;;15.31;83.86
42001;BME280;27689;48.390;10.856;2023-06-26T04:16:32;96144.78;;;15.35;84.33
42001;BME280;27689;48.390;10.856;2023-06-26T04:19:16;96141.81;;;15.38;83.91
42001;BME280;27689;48.390;10.856;2023-06-26T04:22:00;96148.56;;;15.41;83.59
42001;BME280;27689;48.390;10.856;2023-06-26T04:24:44;96153.47;;;15.44;84.06
42001;BME280;27689;48.390;10.856;2023-06-26T04:27:29;96151.47;;;15.46;83.52
42001;BME280;27689;48.390;10.856;2023-06-26T04:30:17;96162.34;;;15.51;83.49
42001;BME280;27689;48.390;10.856;2023-06-26T04:33:00;96152.41;;;15.53;83.46
42001;BME280;27689;48.390;10.856;2023-06-26T04:35:44;96152.75;;;15.58;82.74
42001;BME280;27689;48.390;10.856;2023-06-26T04:38:33;96162.28;;;15.59;83.04
42001;BME280;27689;48.390;10.856;2023-06-26T04:41:17;96159.47;;;15.61;83.18
42001;BME280;27689;48.390;10.856;2023-06-26T04:44:01;96157.47;;;15.63;83.67
42001;BME280;27689;48.390;10.856;2023-06-26T04:46:45;96153.31;;;15.68;83.14
42001;BME280;27689;48.390;10.856;2023-06-26T04:49:29;96151.78;;;15.74;83.28
42001;BME280;27689;48.390;10.856;2023-06-26T04:52:14;96149.72;;;15.84;83.42
42001;BME280;27689;48.390;10.856;2023-06-26T04:54:57;96156.41;;;15.95;82.42
42001;BME280;27689;48.390;10.856;2023-06-26T04:57:41;96153.41;;;15.98;81.98
42001;BME280;27689;48.390;10.856;2023-06-26T05:00:25;96154.13;;;16.06;81.64
42001;BME280;27689;48.390;10.856;2023-06-26T05:03:11;96152.44;;;16.13;81.65
42001;BME280;27689;48.390;10.856;2023-06-26T05:05:55;96158.44;;;16.22;80.79
42001;BME280;27689;48.390;10.856;2023-06-26T05:08:39;96137.94;;;16.24;80.87
42001;BME280;27689;48.390;10.856;2023-06-26T05:11:24;96146.25;;;16.36;80.72
42001;BME280;27689;48.390;10.856;2023-06-26T05:14:08;96144.06;;;16.39;79.83
42001;BME280;27689;48.390;10.856;2023-06-26T05:16:52;96142.13;;;16.48;79.80
42001;BME280;27689;48.390;10.856;2023-06-26T05:19:37;96141.88;;;16.57;80.32
42001;BME280;27689;48.390;10.856;2023-06-26T05:22:20;96140.78;;;16.67;79.35
42001;BME280;27689;48.390;10.856;2023-06-26T05:25:08;96142.41;;;16.82;78.57
42001;BME280;27689;48.390;10.856;2023-06-26T05:27:53;96151.53;;;16.95;77.70
42001;BME280;27689;48.390;10.856;2023-06-26T05:30:38;96141.09;;;17.08;76.83
42001;BME280;27689;48.390;10.856;2023-06-26T05:33:23;96145.16;;;17.25;76.97
42001;BME280;27689;48.390;10.856;2023-06-26T05:36:08;96149.16;;;17.36;76.23
42001;BME280;27689;48.390;10.856;2023-06-26T05:38:52;96145.81;;;17.48;76.51
42001;BME280;27689;48.390;10.856;2023-06-26T05:41:36;96150.13;;;17.71;74.69
42001;BME280;27689;48.390;10.856;2023-06-26T05:44:20;96148.84;;;17.88;74.01
42001;BME280;27689;48.390;10.856;2023-06-26T05:47:05;96150.56;;;18.23;71.23
42001;BME280;27689;48.390;10.856;2023-06-26T05:49:49;96141.81;;;18.29;71.14
42001;BME280;27689;48.390;10.856;2023-06-26T05:52:33;96143.69;;;18.63;68.35
42001;BME280;27689;48.390;10.856;2023-06-26T05:55:18;96152.91;;;18.67;69.18
42001;BME280;27689;48.390;10.856;2023-06-26T05:58:03;96143.31;;;18.66;69.45
42001;BME280;27689;48.390;10.856;2023-06-26T06:00:47;96151.97;;;18.82;68.34
42001;BME280;27689;48.390;10.856;2023-06-26T06:03:31;96145.06;;;18.94;68.11
42001;BME280;27689;48.390;10.856;2023-06-26T06:06:15;96139.84;;;19.20;65.43
42001;BME280;27689;48.390;10.856;2023-06-26T06:09:00;96146.25;;;19.39;62.93
42001;BME280;27689;48.390;10.856;2023-06-26T06:11:44;96140.59;;;19.55;63.36
42001;BME280;27689;48.390;10.856;2023-06-26T06:14:28;96137.53;;;19.58;63.72
42001;BME280;27689;48.390;10.856;2023-06-26T06:17:12;96139.78;;;19.75;61.22
42001;BME280;27689;48.390;10.856;2023-06-26T06:19:56;96139.81;;;20.01;60.26
42001;BME280;27689;48.390;10.856;2023-06-26T06:22:40;96138.78;;;20.08;59.64
42001;BME280;27689;48.390;10.856;2023-06-26T06:25:24;96139.59;;;20.16;60.01
42001;BME280;27689;48.390;10.856;2023-06-26T06:28:08;96145.09;;;20.34;59.84
42001;BME280;27689;48.390;10.856;2023-06-26T06:30:52;96147.75;;;20.54;58.54
42001;BME280;27689;48.390;10.856;2023-06-26T06:33:36;96150.63;;;20.59;59.49
42001;BME280;27689;48.390;10.856;2023-06-26T06:36:20;96145.03;;;20.80;59.28
42001;BME280;27689;48.390;10.856;2023-06-26T06:39:04;96146.03;;;20.86;58.97
42001;BME280;27689;48.390;10.856;2023-06-26T06:41:48;96143.72;;;20.96;57.91
42001;BME280;27689;48.390;10.856;2023-06-26T06:44:32;96149.00;;;21.09;58.07
42001;BME280;27689;48.390;10.856;2023-06-26T06:47:16;96152.66;;;21.28;57.94
42001;BME280;27689;48.390;10.856;2023-06-26T06:50:01;96141.53;;;21.37;57.75
42001;BME280;27689;48.390;10.856;2023-06-26T06:52:54;96148.25;;;21.46;58.02
42001;BME280;27689;48.390;10.856;2023-06-26T06:55:38;96150.22;;;21.64;57.49
42001;BME280;27689;48.390;10.856;2023-06-26T06:58:22;96143.75;;;21.78;57.68
42001;BME280;27689;48.390;10.856;2023-06-26T07:01:06;96151.88;;;21.90;58.31
42001;BME280;27689;48.390;10.856;2023-06-26T07:03:50;96143.59;;;21.98;56.72
42001;BME280;27689;48.390;10.856;2023-06-26T07:06:34;96144.06;;;22.20;58.41
42001;BME280;27689;48.390;10.856;2023-06-26T07:09:18;96150.19;;;22.45;56.54
42001;BME280;27689;48.390;10.856;2023-06-26T07:12:02;96134.25;;;22.57;56.56
42001;BME280;27689;48.390;10.856;2023-06-26T07:14:46;96145.53;;;22.84;55.47
42001;BME280;27689;48.390;10.856;2023-06-26T07:17:31;96141.44;;;23.00;56.96
42001;BME280;27689;48.390;10.856;2023-06-26T07:20:15;96137.41;;;23.09;55.73
42001;BME280;27689;48.390;10.856;2023-06-26T07:22:59;96143.00;;;23.37;54.95
42001;BME280;27689;48.390;10.856;2023-06-26T07:25:43;96137.69;;;23.49;54.55
42001;BME280;27689;48.390;10.856;2023-06-26T07:28:27;96144.31;;;23.65;53.75
42001;BME280;27689;48.390;10.856;2023-06-26T07:31:11;96143.28;;;23.77;53.58
42001;BME280;27689;48.390;10.856;2023-06-26T07:33:55;96134.72;;;23.87;54.72
42001;BME280;27689;48.390;10.856;2023-06-26T07:36:39;96136.16;;;24.01;54.08
42001;BME280;27689;48.390;10.856;2023-06-26T07:39:23;96128.47;;;24.16;54.76
42001;BME280;27689;48.390;10.856;2023-06-26T07:42:07;96121.06;;;24.42;53.57
42001;BME280;27689;48.390;10.856;2023-06-26T07:44:51;96124.78;;;24.52;52.92
42001;BME280;27689;48.390;10.856;2023-06-26T07:47:38;96140.38;;;24.67;51.67
42001;BME280;27689;48.390;10.856;2023-06-26T07:50:22;96126.50;;;24.82;51.00
42001;BME280;27689;48.390;10.856;2023-06-26T07:53:07;96127.88;;;24.96;49.57
42001;BME280;27689;48.390;10.856;2023-06-26T07:55:51;96121.13;;;25.05;50.29
42001;BME280;27689;48.390;10.856;2023-06-26T07:58:35;96126.56;;;25.22;49.01
42001;BME280;27689;48.390;10.856;2023-06-26T08:01:19;96118.75;;;25.49;50.33
42001;BME280;27689;48.390;10.856;2023-06-26T08:04:03;96115.63;;;25.69;49.32
42001;BME280;27689;48.390;10.856;2023-06-26T08:06:49;96115.25;;;25.77;48.23
42001;BME280;27689;48.390;10.856;2023-06-26T08:09:33;96101.75;;;25.88;48.16
42001;BME280;27689;48.390;10.856;2023-06-26T08:12:17;96114.53;;;25.98;46.77
42001;BME280;27689;48.390;10.856;2023-06-26T08:15:01;96113.22;;;26.00;46.61
42001;BME280;27689;48.390;10.856;2023-06-26T08:17:46;96107.88;;;26.17;47.24
42001;BME280;27689;48.390;10.856;2023-06-26T08:20:30;96107.56;;;26.30;46.32
42001;BME280;27689;48.390;10.856;2023-06-26T08:23:14;96101.34;;;26.47;45.53
42001;BME280;27689;48.390;10.856;2023-06-26T08:25:58;96097.13;;;26.73;45.19
42001;BME280;27689;48.390;10.856;2023-06-26T08:28:42;96103.84;;;26.92;45.19
42001;BME280;27689;48.390;10.856;2023-06-26T08:31:26;96103.19;;;27.01;45.17
42001;BME280;27689;48.390;10.856;2023-06-26T08:34:10;96102.22;;;27.34;44.94
42001;BME280;27689;48.390;10.856;2023-06-26T08:36:54;96110.50;;;27.55;44.79
42001;BME280;27689;48.390;10.856;2023-06-26T08:39:38;96109.94;;;27.75;44.01
42001;BME280;27689;48.390;10.856;2023-06-26T08:42:22;96107.53;;;27.78;43.83
42001;BME280;27689;48.390;10.856;2023-06-26T08:45:06;96103.97;;;27.99;44.55
42001;BME280;27689;48.390;10.856;2023-06-26T08:47:53;96104.75;;;28.27;44.88
42001;BME280;27689;48.390;10.856;2023-06-26T08:50:39;96104.09;;;28.47;41.91
42001;BME280;27689;48.390;10.856;2023-06-26T08:56:11;96092.50;;;28.51;40.85
42001;BME280;27689;48.390;10.856;2023-06-26T08:58:58;96108.50;;;28.63;39.74
42001;BME280;27689;48.390;10.856;2023-06-26T09:01:42;96102.59;;;28.71;39.94
42001;BME280;27689;48.390;10.856;2023-06-26T09:04:26;96097.50;;;28.74;40.15
42001;BME280;27689;48.390;10.856;2023-06-26T09:07:10;96095.28;;;28.61;40.00
42001;BME280;27689;48.390;10.856;2023-06-26T09:09:54;96098.22;;;28.65;40.13
42001;BME280;27689;48.390;10.856;2023-06-26T09:12:39;96101.22;;;28.68;40.60
42001;BME280;27689;48.390;10.856;2023-06-26T09:15:23;96093.78;;;28.81;40.41
42001;BME280;27689;48.390;10.856;2023-06-26T09:18:07;96086.63;;;29.06;40.37
42001;BME280;27689;48.390;10.856;2023-06-26T09:20:51;96091.81;;;29.28;38.15
42001;BME280;27689;48.390;10.856;2023-06-26T09:23:36;96093.16;;;29.31;39.53
42001;BME280;27689;48.390;10.856;2023-06-26T09:26:21;96084.63;;;29.49;38.56
42001;BME280;27689;48.390;10.856;2023-06-26T09:29:06;96087.91;;;29.76;38.18
42001;BME280;27689;48.390;10.856;2023-06-26T09:31:51;96087.34;;;29.74;37.13
42001;BME280;27689;48.390;10.856;2023-06-26T09:34:35;96078.16;;;29.70;36.37
42001;BME280;27689;48.390;10.856;2023-06-26T09:37:19;96081.94;;;29.69;37.83
42001;BME280;27689;48.390;10.856;2023-06-26T09:40:04;96072.50;;;29.77;36.73
42001;BME280;27689;48.390;10.856;2023-06-26T09:42:51;96081.44;;;29.98;36.94
42001;BME280;27689;48.390;10.856;2023-06-26T09:45:36;96072.53;;;30.02;35.74
42001;BME280;27689;48.390;10.856;2023-06-26T09:48:20;96089.53;;;30.13;36.05
42001;BME280;27689;48.390;10.856;2023-06-26T09:51:04;96084.16;;;30.03;34.78
42001;BME280;27689;48.390;10.856;2023-06-26T09:53:48;96076.59;;;30.05;35.14
42001;BME280;27689;48.390;10.856;2023-06-26T09:56:33;96075.75;;;30.20;35.52
42001;BME280;27689;48.390;10.856;2023-06-26T09:59:17;96078.44;;;30.30;34.39
42001;BME280;27689;48.390;10.856;2023-06-26T10:02:02;96081.69;;;30.37;34.19
42001;BME280;27689;48.390;10.856;2023-06-26T10:04:46;96075.75;;;30.35;34.38
42001;BME280;27689;48.390;10.856;2023-06-26T10:07:30;96061.16;;;30.31;35.00
42001;BME280;27689;48.390;10.856;2023-06-26T10:10:16;96071.16;;;30.35;34.19
42001;BME280;27689;48.390;10.856;2023-06-26T10:13:06;96071.19;;;30.25;34.75
42001;BME280;27689;48.390;10.856;2023-06-26T10:15:52;96062.50;;;30.33;34.13
42001;BME280;27689;48.390;10.856;2023-06-26T10:18:38;96055.75;;;30.56;34.85
42001;BME280;27689;48.390;10.856;2023-06-26T10:21:24;96064.09;;;30.70;33.73
42001;BME280;27689;48.390;10.856;2023-06-26T10:24:10;96066.97;;;30.89;33.45
42001;BME280;27689;48.390;10.856;2023-06-26T10:26:59;96062.94;;;30.86;33.23
42001;BME280;27689;48.390;10.856;2023-06-26T10:29:52;96070.31;;;30.65;33.08
42001;BME280;27689;48.390;10.856;2023-06-26T10:32:37;96065.19;;;30.59;33.86
42001;BME280;27689;48.390;10.856;2023-06-26T10:35:21;96056.78;;;30.50;33.09
42001;BME280;27689;48.390;10.856;2023-06-26T10:38:05;96054.09;;;30.45;33.63
42001;BME280;27689;48.390;10.856;2023-06-26T10:40:50;96064.38;;;30.48;33.63
42001;BME280;27689;48.390;10.856;2023-06-26T10:43:34;96065.72;;;30.50;33.79
42001;BME280;27689;48.390;10.856;2023-06-26T10:46:18;96061.94;;;30.46;33.29
42001;BME280;27689;48.390;10.856;2023-06-26T10:49:03;96063.00;;;30.61;33.76
42001;BME280;27689;48.390;10.856;2023-06-26T10:51:49;96056.78;;;30.70;33.06
42001;BME280;27689;48.390;10.856;2023-06-26T10:54:33;96064.34;;;30.68;33.20
42001;BME280;27689;48.390;10.856;2023-06-26T10:57:23;96060.84;;;30.42;33.64
42001;BME280;27689;48.390;10.856;2023-06-26T11:00:13;96069.78;;;30.43;33.58
42001;BME280;27689;48.390;10.856;2023-06-26T11:02:58;96060.84;;;30.52;34.01
42001;BME280;27689;48.390;10.856;2023-06-26T11:05:42;96056.72;;;30.80;33.69
42001;BME280;27689;48.390;10.856;2023-06-26T11:08:44;96059.06;;;31.12;34.21
42001;BME280;27689;48.390;10.856;2023-06-26T11:14:35;96046.59;;;31.16;33.95
42001;BME280;27689;48.390;10.856;2023-06-26T11:17:19;96056.69;;;31.50;34.28
42001;BME280;27689;48.390;10.856;2023-06-26T11:20:08;96059.03;;;31.62;33.31
42001;BME280;27689;48.390;10.856;2023-06-26T11:22:55;96052.53;;;31.63;32.82
42001;BME280;27689;48.390;10.856;2023-06-26T11:25:40;96054.16;;;31.69;32.34
42001;BME280;27689;48.390;10.856;2023-06-26T11:28:24;96064.69;;;31.75;32.47
42001;BME280;27689;48.390;10.856;2023-06-26T11:31:08;96052.16;;;31.79;32.90
42001;BME280;27689;48.390;10.856;2023-06-26T11:34:11;96059.50;;;31.79;32.49
42001;BME280;27689;48.390;10.856;2023-06-26T11:36:56;96055.09;;;31.88;32.64
42001;BME280;27689;48.390;10.856;2023-06-26T11:39:40;96066.56;;;32.09;32.34
42001;BME280;27689;48.390;10.856;2023-06-26T11:42:24;96041.59;;;32.12;31.84
42001;BME280;27689;48.390;10.856;2023-06-26T11:45:09;96045.09;;;32.17;32.03
42001;BME280;27689;48.390;10.856;2023-06-26T11:47:54;96052.97;;;32.19;31.46
42001;BME280;27689;48.390;10.856;2023-06-26T11:50:39;96048.72;;;31.64;31.80
42001;BME280;27689;48.390;10.856;2023-06-26T11:53:23;96052.41;;;31.83;31.29
42001;BME280;27689;48.390;10.856;2023-06-26T11:56:14;96043.22;;;32.13;31.26
42001;BME280;27689;48.390;10.856;2023-06-26T11:59:02;96045.78;;;32.33;30.82
42001;BME280;27689;48.390;10.856;2023-06-26T12:01:47;96049.19;;;32.44;30.62
42001;BME280;27689;48.390;10.856;2023-06-26T12:04:31;96053.81;;;32.09;30.90
42001;BME280;27689;48.390;10.856;2023-06-26T12:07:16;96060.63;;;32.07;30.41
42001;BME280;27689;48.390;10.856;2023-06-26T12:10:01;96044.59;;;32.10;30.20
42001;BME280;27689;48.390;10.856;2023-06-26T12:12:45;96047.47;;;32.24;30.51
42001;BME280;27689;48.390;10.856;2023-06-26T12:15:30;96042.91;;;32.48;30.08
42001;BME280;27689;48.390;10.856;2023-06-26T12:18:14;96039.13;;;32.49;28.74
42001;BME280;27689;48.390;10.856;2023-06-26T12:20:58;96043.91;;;32.57;29.00
42001;BME280;27689;48.390;10.856;2023-06-26T12:23:42;96036.50;;;32.63;28.62
42001;BME280;27689;48.390;10.856;2023-06-26T12:26:27;96034.13;;;32.56;28.84
42001;BME280;27689;48.390;10.856;2023-06-26T12:29:15;96044.28;;;32.70;29.89
42001;BME280;27689;48.390;10.856;2023-06-26T12:32:01;96035.06;;;32.71;29.26
42001;BME280;27689;48.390;10.856;2023-06-26T12:34:49;96036.03;;;32.56;28.71
42001;BME280;27689;48.390;10.856;2023-06-26T12:37:37;96032.63;;;32.45;29.00
42001;BME280;27689;48.390;10.856;2023-06-26T12:40:25;96031.00;;;32.44;28.72
42001;BME280;27689;48.390;10.856;2023-06-26T12:43:11;96029.84;;;32.50;29.55
42001;BME280;27689;48.390;10.856;2023-06-26T12:45:56;96020.63;;;32.99;28.83
42001;BME280;27689;48.390;10.856;2023-06-26T12:48:41;96024.31;;;33.08;28.93
42001;BME280;27689;48.390;10.856;2023-06-26T12:51:31;96017.91;;;32.99;27.53
42001;BME280;27689;48.390;10.856;2023-06-26T12:54:15;96028.00;;;33.17;28.59
42001;BME280;27689;48.390;10.856;2023-06-26T12:56:59;96018.91;;;33.08;27.57
42001;BME280;27689;48.390;10.856;2023-06-26T12:59:43;96017.47;;;32.92;29.68
42001;BME280;27689;48.390;10.856;2023-06-26T13:02:27;96020.19;;;32.92;30.37
42001;BME280;27689;48.390;10.856;2023-06-26T13:05:11;96017.19;;;33.12;29.25
42001;BME280;27689;48.390;10.856;2023-06-26T13:07:55;96014.22;;;33.33;29.84
42001;BME280;27689;48.390;10.856;2023-06-26T13:10:39;96009.78;;;33.55;28.51
42001;BME280;27689;48.390;10.856;2023-06-26T13:13:24;96004.81;;;33.44;27.68
42001;BME280;27689;48.390;10.856;2023-06-26T13:16:08;96007.47;;;32.87;27.96
42001;BME280;27689;48.390;10.856;2023-06-26T13:18:53;96004.66;;;32.50;29.07
42001;BME280;27689;48.390;10.856;2023-06-26T13:21:37;95994.53;;;32.55;28.83
42001;BME280;27689;48.390;10.856;2023-06-26T13:24:21;96001.19;;;32.92;29.49
42001;BME280;27689;48.390;10.856;2023-06-26T13:27:06;95997.13;;;33.32;29.33
42001;BME280;27689;48.390;10.856;2023-06-26T13:29:50;95994.19;;;33.47;28.15
42001;BME280;27689;48.390;10.856;2023-06-26T13:32:34;95981.69;;;33.46;27.38
42001;BME280;27689;48.390;10.856;2023-06-26T13:35:18;95981.16;;;33.63;28.36
42001;BME280;27689;48.390;10.856;2023-06-26T13:38:02;95979.00;;;33.97;28.31
42001;BME280;27689;48.390;10.856;2023-06-26T13:40:46;95991.34;;;33.90;27.56
42001;BME280;27689;48.390;10.856;2023-06-26T13:43:30;95988.25;;;33.96;28.63
42001;BME280;27689;48.390;10.856;2023-06-26T13:46:15;95985.78;;;33.81;27.04
42001;BME280;27689;48.390;10.856;2023-06-26T13:48:59;95972.09;;;33.54;27.76
42001;BME280;27689;48.390;10.856;2023-06-26T13:51:43;95987.72;;;33.24;27.89
42001;BME280;27689;48.390;10.856;2023-06-26T13:54:30;95979.47;;;32.92;28.15
42001;BME280;27689;48.390;10.856;2023-06-26T13:57:14;95985.69;;;32.69;28.73
42001;BME280;27689;48.390;10.856;2023-06-26T13:59:59;95976.06;;;32.57;29.29
42001;BME280;27689;48.390;10.856;2023-06-26T14:02:42;95975.78;;;32.59;29.08
42001;BME280;27689;48.390;10.856;2023-06-26T14:05:26;95983.13;;;32.35;30.21
42001;BME280;27689;48.390;10.856;2023-06-26T14:08:11;95987.00;;;32.23;29.96
42001;BME280;27689;48.390;10.856;2023-06-26T14:10:55;95976.09;;;32.05;30.45
42001;BME280;27689;48.390;10.856;2023-06-26T14:13:39;95973.69;;;31.98;30.44
42001;BME280;27689;48.390;10.856;2023-06-26T14:16:22;95982.00;;;31.78;31.44
42001;BME280;27689;48.390;10.856;2023-06-26T14:19:08;95981.00;;;31.69;31.18
42001;BME280;27689;48.390;10.856;2023-06-26T14:21:58;95984.53;;;31.69;31.78
42001;BME280;27689;48.390;10.856;2023-06-26T14:24:43;95987.22;;;31.69;31.78
42001;BME280;27689;48.390;10.856;2023-06-26T14:27:27;95986.13;;;31.75;31.73
42001;BME280;27689;48.390;10.856;2023-06-26T14:30:11;95981.16;;;31.82;32.25